sensor_id;sensor_type;location;lat;lon;timestamp;P1;durP1;ratioP1;P2;durP2;ratioP2
14470;SDS011;7321;50.802;4.336;2022-09-29T00:01:30;10.97;;;9.47;;
14470;SDS011;7321;50.802;4.336;2022-09-29T00:03:56;10.50;;;9.50;;
14470;SDS011;7321;50.802;4.336;2022-09-29T00:06:21;10.57;;;9.53;;
14470;SDS011;7321;50.802;4.336;2022-09-29T00:08:47;10.43;;;9.37;;
14470;SDS011;7321;50.802;4.336;2022-09-29T00:11:14;11.77;;;10.40;;
14470;SDS011;7321;50.802;4.336;2022-09-29T00:13:42;10.57;;;8.93;;
14470;SDS011;7321;50.802;4.336;2022-09-29T00:16:09;10.00;;;9.00;;
14470;SDS011;7321;50.802;4.336;2022-09-29T00:18:35;9.70;;;8.70;;
14470;SDS011;7321;50.802;4.336;2022-09-29T00:21:05;9.40;;;8.33;;
14470;SDS011;7321;50.802;4.336;2022-09-29T00:23:33;9.10;;;8.20;;
14470;SDS011;7321;50.802;4.336;2022-09-29T00:28:29;9.57;;;8.57;;
14470;SDS011;7321;50.802;4.336;2022-09-29T00:30:56;11.87;;;8.30;;
14470;SDS011;7321;50.802;4.336;2022-09-29T00:33:24;9.43;;;8.40;;
14470;SDS011;7321;50.802;4.336;2022-09-29T00:36:03;10.07;;;9.03;;
14470;SDS011;7321;50.802;4.336;2022-09-29T00:38:31;10.30;;;8.57;;
14470;SDS011;7321;50.802;4.336;2022-09-29T00:40:57;9.57;;;8.10;;
14470;SDS011;7321;50.802;4.336;2022-09-29T00:43:44;9.83;;;8.00;;
14470;SDS011;7321;50.802;4.336;2022-09-29T00:48:54;10.23;;;9.13;;
14470;SDS011;7321;50.802;4.336;2022-09-29T00:51:23;9.47;;;8.57;;
14470;SDS011;7321;50.802;4.336;2022-09-29T00:53:51;9.90;;;8.60;;
14470;SDS011;7321;50.802;4.336;2022-09-29T00:56:17;9.83;;;8.83;;
14470;SDS011;7321;50.802;4.336;2022-09-29T00:58:55;11.90;;;8.03;;
14470;SDS011;7321;50.802;4.336;2022-09-29T01:01:25;8.43;;;7.73;;
14470;SDS011;7321;50.802;4.336;2022-09-29T01:03:55;10.03;;;8.30;;
14470;SDS011;7321;50.802;4.336;2022-09-29T01:06:27;13.50;;;9.17;;
14470;SDS011;7321;50.802;4.336;2022-09-29T01:09:01;9.67;;;8.67;;
14470;SDS011;7321;50.802;4.336;2022-09-29T01:11:32;10.10;;;9.10;;
14470;SDS011;7321;50.802;4.336;2022-09-29T01:13:59;13.10;;;9.67;;
14470;SDS011;7321;50.802;4.336;2022-09-29T01:16:30;10.83;;;9.83;;
14470;SDS011;7321;50.802;4.336;2022-09-29T01:19:00;11.47;;;9.00;;
14470;SDS011;7321;50.802;4.336;2022-09-29T01:29:28;8.27;;;7.47;;
14470;SDS011;7321;50.802;4.336;2022-09-29T01:42:21;8.37;;;7.50;;
14470;SDS011;7321;50.802;4.336;2022-09-29T01:45:00;8.63;;;7.73;;
14470;SDS011;7321;50.802;4.336;2022-09-29T01:47:35;8.57;;;7.67;;
14470;SDS011;7321;50.802;4.336;2022-09-29T01:50:11;9.33;;;7.53;;
14470;SDS011;7321;50.802;4.336;2022-09-29T01:52:43;8.47;;;7.40;;
14470;SDS011;7321;50.802;4.336;2022-09-29T01:55:17;11.00;;;7.60;;
14470;SDS011;7321;50.802;4.336;2022-09-29T01:57:49;12.07;;;8.07;;
14470;SDS011;7321;50.802;4.336;2022-09-29T02:00:16;8.57;;;7.73;;
14470;SDS011;7321;50.802;4.336;2022-09-29T02:02:52;9.63;;;8.07;;
14470;SDS011;7321;50.802;4.336;2022-09-29T02:08:07;10.10;;;7.77;;
14470;SDS011;7321;50.802;4.336;2022-09-29T02:10:38;9.20;;;8.30;;
14470;SDS011;7321;50.802;4.336;2022-09-29T02:13:11;8.73;;;7.70;;
14470;SDS011;7321;50.802;4.336;2022-09-29T02:15:42;9.37;;;7.67;;
14470;SDS011;7321;50.802;4.336;2022-09-29T02:18:14;10.73;;;8.40;;
14470;SDS011;7321;50.802;4.336;2022-09-29T02:20:45;8.93;;;8.00;;
14470;SDS011;7321;50.802;4.336;2022-09-29T02:23:11;8.70;;;7.17;;
14470;SDS011;7321;50.802;4.336;2022-09-29T02:25:37;12.70;;;8.10;;
14470;SDS011;7321;50.802;4.336;2022-09-29T02:28:05;9.23;;;7.63;;
14470;SDS011;7321;50.802;4.336;2022-09-29T02:30:31;8.77;;;7.97;;
14470;SDS011;7321;50.802;4.336;2022-09-29T02:32:58;7.70;;;7.00;;
14470;SDS011;7321;50.802;4.336;2022-09-29T02:35:23;10.37;;;7.60;;
14470;SDS011;7321;50.802;4.336;2022-09-29T02:38:10;11.87;;;7.77;;
14470;SDS011;7321;50.802;4.336;2022-09-29T02:40:50;10.73;;;7.73;;
14470;SDS011;7321;50.802;4.336;2022-09-29T02:43:38;9.90;;;7.53;;
14470;SDS011;7321;50.802;4.336;2022-09-29T02:55:11;7.97;;;7.17;;
14470;SDS011;7321;50.802;4.336;2022-09-29T02:58:27;9.53;;;7.23;;
14470;SDS011;7321;50.802;4.336;2022-09-29T03:00:52;9.60;;;7.07;;
14470;SDS011;7321;50.802;4.336;2022-09-29T03:03:18;8.53;;;7.40;;
14470;SDS011;7321;50.802;4.336;2022-09-29T03:05:44;9.73;;;7.33;;
14470;SDS011;7321;50.802;4.336;2022-09-29T03:08:10;11.83;;;7.70;;
14470;SDS011;7321;50.802;4.336;2022-09-29T03:10:35;10.37;;;6.93;;
14470;SDS011;7321;50.802;4.336;2022-09-29T03:13:01;7.90;;;7.10;;
14470;SDS011;7321;50.802;4.336;2022-09-29T03:15:27;8.63;;;7.60;;
14470;SDS011;7321;50.802;4.336;2022-09-29T03:17:55;9.30;;;7.53;;
14470;SDS011;7321;50.802;4.336;2022-09-29T03:20:21;8.57;;;6.97;;
14470;SDS011;7321;50.802;4.336;2022-09-29T03:22:47;10.37;;;6.80;;
14470;SDS011;7321;50.802;4.336;2022-09-29T03:25:13;9.23;;;7.00;;
14470;SDS011;7321;50.802;4.336;2022-09-29T03:27:39;8.00;;;7.20;;
14470;SDS011;7321;50.802;4.336;2022-09-29T03:30:05;11.07;;;7.93;;
14470;SDS011;7321;50.802;4.336;2022-09-29T03:32:31;12.13;;;8.13;;
14470;SDS011;7321;50.802;4.336;2022-09-29T03:34:57;9.50;;;7.40;;
14470;SDS011;7321;50.802;4.336;2022-09-29T03:37:23;8.60;;;6.63;;
14470;SDS011;7321;50.802;4.336;2022-09-29T03:39:49;9.80;;;6.70;;
14470;SDS011;7321;50.802;4.336;2022-09-29T03:42:14;7.73;;;7.00;;
14470;SDS011;7321;50.802;4.336;2022-09-29T03:44:40;9.20;;;7.17;;
14470;SDS011;7321;50.802;4.336;2022-09-29T03:47:06;9.77;;;6.47;;
14470;SDS011;7321;50.802;4.336;2022-09-29T03:49:32;10.93;;;7.30;;
14470;SDS011;7321;50.802;4.336;2022-09-29T03:51:59;8.27;;;7.00;;
14470;SDS011;7321;50.802;4.336;2022-09-29T03:54:26;7.90;;;6.77;;
14470;SDS011;7321;50.802;4.336;2022-09-29T03:56:52;10.43;;;6.90;;
14470;SDS011;7321;50.802;4.336;2022-09-29T03:59:18;8.87;;;6.90;;
14470;SDS011;7321;50.802;4.336;2022-09-29T04:01:43;11.73;;;7.80;;
14470;SDS011;7321;50.802;4.336;2022-09-29T04:04:09;8.10;;;7.07;;
14470;SDS011;7321;50.802;4.336;2022-09-29T04:06:35;8.53;;;6.70;;
14470;SDS011;7321;50.802;4.336;2022-09-29T04:09:01;7.83;;;7.00;;
14470;SDS011;7321;50.802;4.336;2022-09-29T04:11:27;12.40;;;7.77;;
14470;SDS011;7321;50.802;4.336;2022-09-29T04:13:53;8.57;;;7.13;;
14470;SDS011;7321;50.802;4.336;2022-09-29T04:16:19;11.50;;;7.73;;
14470;SDS011;7321;50.802;4.336;2022-09-29T04:18:44;11.80;;;7.70;;
14470;SDS011;7321;50.802;4.336;2022-09-29T04:21:10;11.77;;;7.63;;
14470;SDS011;7321;50.802;4.336;2022-09-29T04:23:36;14.73;;;8.47;;
14470;SDS011;7321;50.802;4.336;2022-09-29T04:26:03;10.97;;;7.70;;
14470;SDS011;7321;50.802;4.336;2022-09-29T04:28:32;8.80;;;7.90;;
14470;SDS011;7321;50.802;4.336;2022-09-29T04:30:59;11.53;;;8.80;;
14470;SDS011;7321;50.802;4.336;2022-09-29T04:33:25;11.00;;;8.23;;
14470;SDS011;7321;50.802;4.336;2022-09-29T04:35:50;10.57;;;7.60;;
14470;SDS011;7321;50.802;4.336;2022-09-29T04:38:16;9.80;;;7.93;;
14470;SDS011;7321;50.802;4.336;2022-09-29T04:40:42;9.87;;;7.63;;
14470;SDS011;7321;50.802;4.336;2022-09-29T04:43:08;14.10;;;8.77;;
14470;SDS011;7321;50.802;4.336;2022-09-29T04:45:34;9.53;;;7.13;;
14470;SDS011;7321;50.802;4.336;2022-09-29T04:47:59;9.50;;;7.73;;
14470;SDS011;7321;50.802;4.336;2022-09-29T04:50:25;9.40;;;6.97;;
14470;SDS011;7321;50.802;4.336;2022-09-29T04:52:51;9.30;;;7.33;;
14470;SDS011;7321;50.802;4.336;2022-09-29T04:55:17;13.30;;;7.70;;
14470;SDS011;7321;50.802;4.336;2022-09-29T04:57:42;9.77;;;7.60;;
14470;SDS011;7321;50.802;4.336;2022-09-29T05:00:09;10.67;;;7.67;;
14470;SDS011;7321;50.802;4.336;2022-09-29T05:02:35;16.97;;;11.13;;
14470;SDS011;7321;50.802;4.336;2022-09-29T05:05:02;19.07;;;13.70;;
14470;SDS011;7321;50.802;4.336;2022-09-29T05:07:28;17.23;;;11.63;;
14470;SDS011;7321;50.802;4.336;2022-09-29T05:09:54;13.97;;;10.50;;
14470;SDS011;7321;50.802;4.336;2022-09-29T05:12:20;14.27;;;9.20;;
14470;SDS011;7321;50.802;4.336;2022-09-29T05:14:48;13.17;;;9.07;;
14470;SDS011;7321;50.802;4.336;2022-09-29T05:17:14;18.23;;;11.83;;
14470;SDS011;7321;50.802;4.336;2022-09-29T05:19:40;15.17;;;10.57;;
14470;SDS011;7321;50.802;4.336;2022-09-29T05:22:06;13.83;;;10.20;;
14470;SDS011;7321;50.802;4.336;2022-09-29T05:24:31;13.03;;;9.17;;
14470;SDS011;7321;50.802;4.336;2022-09-29T05:26:57;13.97;;;8.83;;
14470;SDS011;7321;50.802;4.336;2022-09-29T05:29:23;14.10;;;8.87;;
14470;SDS011;7321;50.802;4.336;2022-09-29T05:31:49;11.90;;;8.77;;
14470;SDS011;7321;50.802;4.336;2022-09-29T05:34:16;11.00;;;8.23;;
14470;SDS011;7321;50.802;4.336;2022-09-29T05:36:42;14.30;;;8.63;;
14470;SDS011;7321;50.802;4.336;2022-09-29T05:39:08;11.07;;;8.30;;
14470;SDS011;7321;50.802;4.336;2022-09-29T05:41:34;11.13;;;8.37;;
14470;SDS011;7321;50.802;4.336;2022-09-29T05:44:00;11.60;;;8.30;;
14470;SDS011;7321;50.802;4.336;2022-09-29T05:46:26;10.33;;;7.87;;
14470;SDS011;7321;50.802;4.336;2022-09-29T05:48:52;12.57;;;9.20;;
14470;SDS011;7321;50.802;4.336;2022-09-29T05:51:19;11.90;;;8.73;;
14470;SDS011;7321;50.802;4.336;2022-09-29T05:53:46;11.20;;;8.73;;
14470;SDS011;7321;50.802;4.336;2022-09-29T05:56:14;12.80;;;9.97;;
14470;SDS011;7321;50.802;4.336;2022-09-29T05:58:43;15.00;;;11.97;;
14470;SDS011;7321;50.802;4.336;2022-09-29T06:01:10;22.10;;;13.73;;
14470;SDS011;7321;50.802;4.336;2022-09-29T06:03:38;32.67;;;18.73;;
14470;SDS011;7321;50.802;4.336;2022-09-29T06:06:05;19.97;;;11.00;;
14470;SDS011;7321;50.802;4.336;2022-09-29T06:08:36;18.13;;;11.30;;
14470;SDS011;7321;50.802;4.336;2022-09-29T06:13:38;12.93;;;9.63;;
14470;SDS011;7321;50.802;4.336;2022-09-29T06:16:05;13.80;;;8.67;;
14470;SDS011;7321;50.802;4.336;2022-09-29T06:18:31;20.30;;;13.37;;
14470;SDS011;7321;50.802;4.336;2022-09-29T06:21:04;18.63;;;12.80;;
14470;SDS011;7321;50.802;4.336;2022-09-29T06:23:31;14.97;;;10.20;;
14470;SDS011;7321;50.802;4.336;2022-09-29T06:25:58;12.57;;;9.67;;
14470;SDS011;7321;50.802;4.336;2022-09-29T06:28:29;11.33;;;9.50;;
14470;SDS011;7321;50.802;4.336;2022-09-29T06:31:03;16.03;;;10.17;;
14470;SDS011;7321;50.802;4.336;2022-09-29T06:33:36;13.53;;;9.37;;
14470;SDS011;7321;50.802;4.336;2022-09-29T06:36:03;20.63;;;10.43;;
14470;SDS011;7321;50.802;4.336;2022-09-29T06:39:00;15.20;;;11.00;;
14470;SDS011;7321;50.802;4.336;2022-09-29T06:41:26;14.43;;;11.97;;
14470;SDS011;7321;50.802;4.336;2022-09-29T06:43:53;19.93;;;13.00;;
14470;SDS011;7321;50.802;4.336;2022-09-29T06:46:19;21.30;;;12.60;;
14470;SDS011;7321;50.802;4.336;2022-09-29T06:48:46;15.70;;;11.30;;
14470;SDS011;7321;50.802;4.336;2022-09-29T06:51:12;18.30;;;10.53;;
14470;SDS011;7321;50.802;4.336;2022-09-29T06:53:39;14.87;;;9.53;;
14470;SDS011;7321;50.802;4.336;2022-09-29T06:56:05;16.03;;;9.70;;
14470;SDS011;7321;50.802;4.336;2022-09-29T06:58:33;13.27;;;9.10;;
14470;SDS011;7321;50.802;4.336;2022-09-29T07:01:00;10.57;;;8.53;;
14470;SDS011;7321;50.802;4.336;2022-09-29T07:03:27;10.13;;;8.63;;
14470;SDS011;7321;50.802;4.336;2022-09-29T07:05:53;12.30;;;9.10;;
14470;SDS011;7321;50.802;4.336;2022-09-29T07:08:19;14.40;;;8.80;;
14470;SDS011;7321;50.802;4.336;2022-09-29T07:10:45;10.50;;;8.27;;
14470;SDS011;7321;50.802;4.336;2022-09-29T07:13:11;15.77;;;9.00;;
14470;SDS011;7321;50.802;4.336;2022-09-29T07:15:37;11.83;;;7.83;;
14470;SDS011;7321;50.802;4.336;2022-09-29T07:18:02;9.50;;;7.73;;
14470;SDS011;7321;50.802;4.336;2022-09-29T07:20:29;11.40;;;7.90;;
14470;SDS011;7321;50.802;4.336;2022-09-29T07:22:58;9.37;;;7.00;;
14470;SDS011;7321;50.802;4.336;2022-09-29T07:25:24;10.77;;;7.63;;
14470;SDS011;7321;50.802;4.336;2022-09-29T07:27:50;10.07;;;7.67;;
14470;SDS011;7321;50.802;4.336;2022-09-29T07:30:16;13.87;;;8.07;;
14470;SDS011;7321;50.802;4.336;2022-09-29T07:32:43;15.73;;;7.50;;
14470;SDS011;7321;50.802;4.336;2022-09-29T07:35:10;10.90;;;7.73;;
14470;SDS011;7321;50.802;4.336;2022-09-29T07:37:35;12.50;;;8.30;;
14470;SDS011;7321;50.802;4.336;2022-09-29T07:40:01;13.13;;;8.17;;
14470;SDS011;7321;50.802;4.336;2022-09-29T07:42:27;11.93;;;7.87;;
14470;SDS011;7321;50.802;4.336;2022-09-29T07:44:54;11.33;;;7.67;;
14470;SDS011;7321;50.802;4.336;2022-09-29T07:47:20;13.87;;;8.80;;
14470;SDS011;7321;50.802;4.336;2022-09-29T07:49:46;10.87;;;7.90;;
14470;SDS011;7321;50.802;4.336;2022-09-29T07:52:12;14.80;;;8.50;;
14470;SDS011;7321;50.802;4.336;2022-09-29T07:54:41;11.50;;;7.50;;
14470;SDS011;7321;50.802;4.336;2022-09-29T07:57:07;9.10;;;7.80;;
14470;SDS011;7321;50.802;4.336;2022-09-29T07:59:32;10.20;;;7.67;;
14470;SDS011;7321;50.802;4.336;2022-09-29T08:01:58;11.13;;;7.53;;
14470;SDS011;7321;50.802;4.336;2022-09-29T08:04:24;11.57;;;7.73;;
14470;SDS011;7321;50.802;4.336;2022-09-29T08:06:50;11.67;;;7.83;;
14470;SDS011;7321;50.802;4.336;2022-09-29T08:09:17;11.57;;;7.83;;
14470;SDS011;7321;50.802;4.336;2022-09-29T08:11:43;9.93;;;7.33;;
14470;SDS011;7321;50.802;4.336;2022-09-29T08:14:09;32.77;;;30.07;;
14470;SDS011;7321;50.802;4.336;2022-09-29T08:16:36;14.10;;;11.83;;
14470;SDS011;7321;50.802;4.336;2022-09-29T08:19:02;11.07;;;8.17;;
14470;SDS011;7321;50.802;4.336;2022-09-29T08:21:29;13.77;;;8.63;;
14470;SDS011;7321;50.802;4.336;2022-09-29T08:23:56;9.37;;;7.87;;
14470;SDS011;7321;50.802;4.336;2022-09-29T08:26:21;9.63;;;7.50;;
14470;SDS011;7321;50.802;4.336;2022-09-29T08:28:47;10.63;;;8.10;;
14470;SDS011;7321;50.802;4.336;2022-09-29T08:31:14;13.07;;;7.53;;
14470;SDS011;7321;50.802;4.336;2022-09-29T08:33:48;11.47;;;7.53;;
14470;SDS011;7321;50.802;4.336;2022-09-29T08:36:16;10.57;;;7.47;;
14470;SDS011;7321;50.802;4.336;2022-09-29T08:38:47;12.33;;;6.83;;
14470;SDS011;7321;50.802;4.336;2022-09-29T08:43:49;10.33;;;7.20;;
14470;SDS011;7321;50.802;4.336;2022-09-29T08:46:37;16.40;;;7.50;;
14470;SDS011;7321;50.802;4.336;2022-09-29T08:49:11;12.20;;;7.20;;
14470;SDS011;7321;50.802;4.336;2022-09-29T08:51:55;13.33;;;8.07;;
14470;SDS011;7321;50.802;4.336;2022-09-29T08:54:29;14.17;;;7.83;;
14470;SDS011;7321;50.802;4.336;2022-09-29T08:56:59;8.53;;;6.40;;
14470;SDS011;7321;50.802;4.336;2022-09-29T08:59:28;10.30;;;6.63;;
14470;SDS011;7321;50.802;4.336;2022-09-29T09:07:14;9.07;;;6.93;;
14470;SDS011;7321;50.802;4.336;2022-09-29T09:12:33;9.70;;;6.27;;
14470;SDS011;7321;50.802;4.336;2022-09-29T09:15:07;6.27;;;5.40;;
14470;SDS011;7321;50.802;4.336;2022-09-29T09:20:41;12.23;;;6.40;;
14470;SDS011;7321;50.802;4.336;2022-09-29T09:23:35;9.03;;;6.27;;
14470;SDS011;7321;50.802;4.336;2022-09-29T09:26:16;49.83;;;9.80;;
14470;SDS011;7321;50.802;4.336;2022-09-29T09:31:26;39.60;;;8.60;;
14470;SDS011;7321;50.802;4.336;2022-09-29T09:34:15;17.00;;;5.07;;
14470;SDS011;7321;50.802;4.336;2022-09-29T09:36:54;8.17;;;5.37;;
14470;SDS011;7321;50.802;4.336;2022-09-29T09:39:41;7.70;;;5.03;;
14470;SDS011;7321;50.802;4.336;2022-09-29T09:42:19;7.40;;;4.27;;
14470;SDS011;7321;50.802;4.336;2022-09-29T09:44:53;8.07;;;4.63;;
14470;SDS011;7321;50.802;4.336;2022-09-29T09:49:59;7.27;;;4.87;;
14470;SDS011;7321;50.802;4.336;2022-09-29T09:52:38;8.37;;;4.53;;
14470;SDS011;7321;50.802;4.336;2022-09-29T09:55:15;5.53;;;4.10;;
14470;SDS011;7321;50.802;4.336;2022-09-29T10:00:23;4.88;;;3.70;;
14470;SDS011;7321;50.802;4.336;2022-09-29T10:03:01;5.23;;;2.93;;
14470;SDS011;7321;50.802;4.336;2022-09-29T10:05:36;3.80;;;3.30;;
14470;SDS011;7321;50.802;4.336;2022-09-29T10:08:05;5.87;;;3.73;;
14470;SDS011;7321;50.802;4.336;2022-09-29T10:10:36;3.80;;;2.80;;
14470;SDS011;7321;50.802;4.336;2022-09-29T10:13:06;5.50;;;2.60;;
14470;SDS011;7321;50.802;4.336;2022-09-29T10:15:35;5.57;;;3.40;;
14470;SDS011;7321;50.802;4.336;2022-09-29T10:20:55;3.58;;;2.90;;
14470;SDS011;7321;50.802;4.336;2022-09-29T10:23:25;7.30;;;3.25;;
14470;SDS011;7321;50.802;4.336;2022-09-29T10:26:15;5.45;;;3.33;;
14470;SDS011;7321;50.802;4.336;2022-09-29T10:28:46;4.30;;;3.45;;
14470;SDS011;7321;50.802;4.336;2022-09-29T10:31:24;3.28;;;2.97;;
14470;SDS011;7321;50.802;4.336;2022-09-29T10:34:12;4.35;;;2.67;;
14470;SDS011;7321;50.802;4.336;2022-09-29T10:36:49;3.03;;;2.72;;
14470;SDS011;7321;50.802;4.336;2022-09-29T10:41:58;4.18;;;2.58;;
14470;SDS011;7321;50.802;4.336;2022-09-29T10:44:28;5.00;;;3.03;;
14470;SDS011;7321;50.802;4.336;2022-09-29T10:46:57;4.63;;;4.10;;
14470;SDS011;7321;50.802;4.336;2022-09-29T10:49:24;8.82;;;4.20;;
14470;SDS011;7321;50.802;4.336;2022-09-29T10:51:57;3.70;;;3.30;;
14470;SDS011;7321;50.802;4.336;2022-09-29T10:54:27;4.88;;;3.83;;
14470;SDS011;7321;50.802;4.336;2022-09-29T10:56:56;6.18;;;3.58;;
14470;SDS011;7321;50.802;4.336;2022-09-29T10:59:22;3.95;;;3.10;;
14470;SDS011;7321;50.802;4.336;2022-09-29T11:01:54;3.97;;;3.17;;
14470;SDS011;7321;50.802;4.336;2022-09-29T11:04:29;5.75;;;3.63;;
14470;SDS011;7321;50.802;4.336;2022-09-29T11:07:07;3.90;;;3.35;;
14470;SDS011;7321;50.802;4.336;2022-09-29T11:09:37;4.45;;;3.10;;
14470;SDS011;7321;50.802;4.336;2022-09-29T11:12:11;5.43;;;3.70;;
14470;SDS011;7321;50.802;4.336;2022-09-29T11:15:26;4.35;;;3.15;;
14470;SDS011;7321;50.802;4.336;2022-09-29T11:18:16;8.20;;;3.38;;
14470;SDS011;7321;50.802;4.336;2022-09-29T11:21:20;5.28;;;3.10;;
14470;SDS011;7321;50.802;4.336;2022-09-29T11:23:43;5.32;;;2.58;;
14470;SDS011;7321;50.802;4.336;2022-09-29T11:26:28;3.42;;;2.53;;
14470;SDS011;7321;50.802;4.336;2022-09-29T11:31:38;4.30;;;2.72;;
14470;SDS011;7321;50.802;4.336;2022-09-29T11:34:42;3.28;;;2.60;;
14470;SDS011;7321;50.802;4.336;2022-09-29T11:40:20;4.18;;;2.75;;
14470;SDS011;7321;50.802;4.336;2022-09-29T11:46:20;3.90;;;3.20;;
14470;SDS011;7321;50.802;4.336;2022-09-29T11:57:45;3.10;;;2.70;;
14470;SDS011;7321;50.802;4.336;2022-09-29T12:00:16;3.78;;;3.15;;
14470;SDS011;7321;50.802;4.336;2022-09-29T12:08:15;2.30;;;1.70;;
14470;SDS011;7321;50.802;4.336;2022-09-29T12:16:19;3.60;;;2.40;;
14470;SDS011;7321;50.802;4.336;2022-09-29T12:19:03;3.53;;;1.75;;
14470;SDS011;7321;50.802;4.336;2022-09-29T12:21:41;3.38;;;1.77;;
14470;SDS011;7321;50.802;4.336;2022-09-29T12:24:19;2.70;;;1.90;;
14470;SDS011;7321;50.802;4.336;2022-09-29T12:26:52;1.95;;;1.80;;
14470;SDS011;7321;50.802;4.336;2022-09-29T12:32:13;2.28;;;1.90;;
14470;SDS011;7321;50.802;4.336;2022-09-29T12:35:03;2.85;;;1.73;;
14470;SDS011;7321;50.802;4.336;2022-09-29T12:37:40;3.03;;;1.75;;
14470;SDS011;7321;50.802;4.336;2022-09-29T12:40:22;2.22;;;1.40;;
14470;SDS011;7321;50.802;4.336;2022-09-29T12:48:13;2.72;;;1.48;;
14470;SDS011;7321;50.802;4.336;2022-09-29T12:51:28;1.40;;;1.30;;
14470;SDS011;7321;50.802;4.336;2022-09-29T13:01:48;1.73;;;1.45;;
14470;SDS011;7321;50.802;4.336;2022-09-29T13:10:29;2.78;;;1.55;;
14470;SDS011;7321;50.802;4.336;2022-09-29T13:18:29;2.35;;;1.33;;
14470;SDS011;7321;50.802;4.336;2022-09-29T13:23:39;1.75;;;1.58;;
14470;SDS011;7321;50.802;4.336;2022-09-29T13:26:25;1.58;;;1.48;;
14470;SDS011;7321;50.802;4.336;2022-09-29T13:28:57;3.78;;;1.35;;
14470;SDS011;7321;50.802;4.336;2022-09-29T13:31:27;2.17;;;1.55;;
14470;SDS011;7321;50.802;4.336;2022-09-29T13:33:57;3.10;;;1.55;;
14470;SDS011;7321;50.802;4.336;2022-09-29T13:36:33;2.55;;;1.40;;
14470;SDS011;7321;50.802;4.336;2022-09-29T13:39:04;2.33;;;1.23;;
14470;SDS011;7321;50.802;4.336;2022-09-29T13:41:36;2.92;;;1.70;;
14470;SDS011;7321;50.802;4.336;2022-09-29T13:44:16;2.08;;;1.30;;
14470;SDS011;7321;50.802;4.336;2022-09-29T13:46:46;2.55;;;1.48;;
14470;SDS011;7321;50.802;4.336;2022-09-29T13:49:22;1.30;;;1.20;;
14470;SDS011;7321;50.802;4.336;2022-09-29T13:54:30;1.05;;;0.85;;
14470;SDS011;7321;50.802;4.336;2022-09-29T13:57:05;2.17;;;1.38;;
14470;SDS011;7321;50.802;4.336;2022-09-29T14:00:00;2.22;;;1.30;;
14470;SDS011;7321;50.802;4.336;2022-09-29T14:07:47;2.58;;;2.28;;
14470;SDS011;7321;50.802;4.336;2022-09-29T14:10:36;5.00;;;1.67;;
14470;SDS011;7321;50.802;4.336;2022-09-29T14:13:11;2.22;;;1.15;;
14470;SDS011;7321;50.802;4.336;2022-09-29T14:16:03;1.65;;;1.20;;
14470;SDS011;7321;50.802;4.336;2022-09-29T14:29:40;2.35;;;1.40;;
14470;SDS011;7321;50.802;4.336;2022-09-29T14:32:18;2.67;;;1.83;;
14470;SDS011;7321;50.802;4.336;2022-09-29T14:34:47;4.88;;;3.55;;
14470;SDS011;7321;50.802;4.336;2022-09-29T14:37:18;4.72;;;3.65;;
14470;SDS011;7321;50.802;4.336;2022-09-29T14:39:48;4.63;;;3.22;;
14470;SDS011;7321;50.802;4.336;2022-09-29T14:42:33;2.65;;;2.38;;
14470;SDS011;7321;50.802;4.336;2022-09-29T14:45:00;3.97;;;2.30;;
14470;SDS011;7321;50.802;4.336;2022-09-29T14:48:06;3.33;;;2.00;;
14470;SDS011;7321;50.802;4.336;2022-09-29T14:51:08;4.53;;;2.00;;
14470;SDS011;7321;50.802;4.336;2022-09-29T14:54:06;5.47;;;2.85;;
14470;SDS011;7321;50.802;4.336;2022-09-29T14:59:34;4.10;;;2.70;;
14470;SDS011;7321;50.802;4.336;2022-09-29T15:02:20;2.45;;;2.25;;
14470;SDS011;7321;50.802;4.336;2022-09-29T15:04:49;3.38;;;2.38;;
14470;SDS011;7321;50.802;4.336;2022-09-29T15:07:16;3.47;;;3.17;;
14470;SDS011;7321;50.802;4.336;2022-09-29T15:09:46;4.57;;;2.10;;
14470;SDS011;7321;50.802;4.336;2022-09-29T15:12:19;2.88;;;1.90;;
14470;SDS011;7321;50.802;4.336;2022-09-29T15:14:47;2.25;;;1.55;;
14470;SDS011;7321;50.802;4.336;2022-09-29T15:17:21;1.63;;;1.52;;
14470;SDS011;7321;50.802;4.336;2022-09-29T15:22:46;2.88;;;1.50;;
14470;SDS011;7321;50.802;4.336;2022-09-29T15:25:44;3.22;;;1.60;;
14470;SDS011;7321;50.802;4.336;2022-09-29T15:28:13;3.88;;;1.42;;
14470;SDS011;7321;50.802;4.336;2022-09-29T15:30:47;3.70;;;1.65;;
14470;SDS011;7321;50.802;4.336;2022-09-29T15:33:24;1.83;;;1.48;;
14470;SDS011;7321;50.802;4.336;2022-09-29T15:36:04;2.72;;;1.90;;
14470;SDS011;7321;50.802;4.336;2022-09-29T15:38:35;3.70;;;2.15;;
14470;SDS011;7321;50.802;4.336;2022-09-29T15:41:04;3.03;;;2.40;;
14470;SDS011;7321;50.802;4.336;2022-09-29T15:43:56;2.47;;;2.20;;
14470;SDS011;7321;50.802;4.336;2022-09-29T15:46:24;2.33;;;2.13;;
14470;SDS011;7321;50.802;4.336;2022-09-29T15:51:27;2.20;;;2.10;;
14470;SDS011;7321;50.802;4.336;2022-09-29T15:53:53;3.50;;;2.30;;
14470;SDS011;7321;50.802;4.336;2022-09-29T15:56:20;3.10;;;2.60;;
14470;SDS011;7321;50.802;4.336;2022-09-29T15:58:46;3.10;;;2.40;;
14470;SDS011;7321;50.802;4.336;2022-09-29T16:01:13;3.50;;;2.33;;
14470;SDS011;7321;50.802;4.336;2022-09-29T16:08:58;3.93;;;2.60;;
14470;SDS011;7321;50.802;4.336;2022-09-29T16:14:01;3.73;;;2.57;;
14470;SDS011;7321;50.802;4.336;2022-09-29T16:16:34;4.77;;;3.00;;
14470;SDS011;7321;50.802;4.336;2022-09-29T16:19:14;3.90;;;2.40;;
14470;SDS011;7321;50.802;4.336;2022-09-29T16:21:40;3.00;;;2.50;;
14470;SDS011;7321;50.802;4.336;2022-09-29T16:24:10;4.23;;;3.10;;
14470;SDS011;7321;50.802;4.336;2022-09-29T16:26:51;5.47;;;3.00;;
14470;SDS011;7321;50.802;4.336;2022-09-29T16:31:44;4.40;;;4.00;;
14470;SDS011;7321;50.802;4.336;2022-09-29T16:39:27;5.10;;;4.67;;
14470;SDS011;7321;50.802;4.336;2022-09-29T16:42:23;8.40;;;6.57;;
14470;SDS011;7321;50.802;4.336;2022-09-29T16:44:51;6.60;;;5.90;;
14470;SDS011;7321;50.802;4.336;2022-09-29T16:47:22;8.47;;;6.73;;
14470;SDS011;7321;50.802;4.336;2022-09-29T16:49:57;14.03;;;11.27;;
14470;SDS011;7321;50.802;4.336;2022-09-29T16:52:31;7.17;;;6.43;;
14470;SDS011;7321;50.802;4.336;2022-09-29T16:58:02;20.90;;;19.00;;
14470;SDS011;7321;50.802;4.336;2022-09-29T17:00:33;8.40;;;5.53;;
14470;SDS011;7321;50.802;4.336;2022-09-29T17:03:00;6.00;;;5.37;;
14470;SDS011;7321;50.802;4.336;2022-09-29T17:05:33;23.73;;;21.27;;
14470;SDS011;7321;50.802;4.336;2022-09-29T17:08:11;11.67;;;9.60;;
14470;SDS011;7321;50.802;4.336;2022-09-29T17:10:46;10.67;;;9.50;;
14470;SDS011;7321;50.802;4.336;2022-09-29T17:13:13;9.37;;;7.50;;
14470;SDS011;7321;50.802;4.336;2022-09-29T17:15:41;9.10;;;7.97;;
14470;SDS011;7321;50.802;4.336;2022-09-29T17:18:10;10.57;;;8.47;;
14470;SDS011;7321;50.802;4.336;2022-09-29T17:20:37;8.63;;;5.10;;
14470;SDS011;7321;50.802;4.336;2022-09-29T17:23:03;7.70;;;5.50;;
14470;SDS011;7321;50.802;4.336;2022-09-29T17:25:36;12.93;;;7.77;;
14470;SDS011;7321;50.802;4.336;2022-09-29T17:28:18;45.67;;;24.13;;
14470;SDS011;7321;50.802;4.336;2022-09-29T17:30:48;8.83;;;5.70;;
14470;SDS011;7321;50.802;4.336;2022-09-29T17:33:18;5.87;;;4.77;;
14470;SDS011;7321;50.802;4.336;2022-09-29T17:35:47;5.50;;;3.60;;
14470;SDS011;7321;50.802;4.336;2022-09-29T17:38:15;4.40;;;3.50;;
14470;SDS011;7321;50.802;4.336;2022-09-29T17:43:12;4.50;;;3.77;;
14470;SDS011;7321;50.802;4.336;2022-09-29T17:45:38;7.40;;;3.90;;
14470;SDS011;7321;50.802;4.336;2022-09-29T17:48:08;4.70;;;4.20;;
14470;SDS011;7321;50.802;4.336;2022-09-29T17:50:50;7.30;;;5.83;;
14470;SDS011;7321;50.802;4.336;2022-09-29T17:53:20;8.47;;;7.53;;
14470;SDS011;7321;50.802;4.336;2022-09-29T17:55:48;10.33;;;7.83;;
14470;SDS011;7321;50.802;4.336;2022-09-29T17:58:16;9.27;;;7.67;;
14470;SDS011;7321;50.802;4.336;2022-09-29T18:00:48;6.83;;;6.13;;
14470;SDS011;7321;50.802;4.336;2022-09-29T18:03:19;9.20;;;6.90;;
14470;SDS011;7321;50.802;4.336;2022-09-29T18:05:47;9.50;;;7.93;;
14470;SDS011;7321;50.802;4.336;2022-09-29T18:08:24;8.80;;;6.63;;
14470;SDS011;7321;50.802;4.336;2022-09-29T18:10:56;9.13;;;6.83;;
14470;SDS011;7321;50.802;4.336;2022-09-29T18:13:26;8.43;;;6.50;;